Time;durP1;ratioP1;P1;durP2;ratioP2;P2;SDS_P1;SDS_P2;PMS_P1;PMS_P2;Temp;Humidity;BMP_temperature;BMP_pressure;BME280_temperature;BME280_humidity;BME280_pressure;Samples;Min_cycle;Max_cycle;Signal;HPM_P1;HPM_P2
2023/07/02 00:02:18;;;;;;;13.98;6.80;;;16.10;99.90;;;;;;5064302;28;20596;-65
2023/07/02 00:04:44;;;;;;;9.63;6.35;;;16.10;99.90;;;;;;5072861;28;20044;-65
2023/07/02 00:07:09;;;;;;;12.23;6.65;;;16.00;99.90;;;;;;5073875;28;20043;-65
2023/07/02 00:09:35;;;;;;;10.40;6.80;;;16.00;99.90;;;;;;5065401;28;20478;-64
2023/07/02 00:12:00;;;;;;;10.35;7.50;;;15.90;99.90;;;;;;5072167;28;20111;-64
2023/07/02 00:14:26;;;;;;;10.18;7.13;;;15.90;99.90;;;;;;5072328;28;20052;-65
2023/07/02 00:16:52;;;;;;;10.38;6.75;;;15.90;99.90;;;;;;5063462;28;20120;-65
2023/07/02 00:19:17;;;;;;;10.90;6.47;;;15.80;99.90;;;;;;5060835;28;20037;-65
2023/07/02 00:21:43;;;;;;;8.02;5.95;;;15.80;99.90;;;;;;5072356;28;20141;-64
2023/07/02 00:24:12;;;;;;;12.23;6.45;;;15.80;99.90;;;;;;5073439;28;20041;-65
2023/07/02 00:26:38;;;;;;;9.95;6.47;;;15.70;99.90;;;;;;5061297;28;20414;-64
2023/07/02 00:29:05;;;;;;;10.68;6.43;;;15.70;99.90;;;;;;5072646;28;20043;-65
2023/07/02 00:31:31;;;;;;;11.25;6.28;;;15.60;99.90;;;;;;5072913;28;20044;-65
2023/07/02 00:33:57;;;;;;;10.70;6.63;;;15.60;99.90;;;;;;5063467;28;20067;-64
2023/07/02 00:36:23;;;;;;;12.10;6.78;;;15.60;99.90;;;;;;5064229;28;20047;-65
2023/07/02 00:38:49;;;;;;;10.05;6.57;;;15.60;99.90;;;;;;5070940;28;20037;-65
2023/07/02 00:41:15;;;;;;;9.00;6.40;;;15.60;99.90;;;;;;5071578;28;20050;-65
2023/07/02 00:43:44;;;;;;;12.55;6.82;;;15.60;99.90;;;;;;5053934;28;20045;-65
2023/07/02 00:46:17;;;;;;;9.55;6.05;;;15.60;99.90;;;;;;5065737;28;20124;-65
2023/07/02 00:48:45;;;;;;;11.25;6.55;;;15.60;99.90;;;;;;5072254;28;20116;-65
2023/07/02 00:51:16;;;;;;;10.05;6.55;;;15.60;99.90;;;;;;5065389;28;20435;-65
2023/07/02 00:53:43;;;;;;;12.57;6.60;;;15.60;99.90;;;;;;5070040;28;20082;-65
2023/07/02 00:56:09;;;;;;;13.82;6.90;;;15.60;99.90;;;;;;5072350;28;20102;-65
2023/07/02 00:58:39;;;;;;;11.27;6.57;;;15.60;99.90;;;;;;5071042;28;20036;-65
2023/07/02 01:01:04;;;;;;;12.93;6.60;;;15.60;99.90;;;;;;5064701;28;20586;-63
2023/07/02 01:03:32;;;;;;;10.30;6.68;;;15.60;99.90;;;;;;5068010;28;20127;-65
2023/07/02 01:05:58;;;;;;;12.10;6.70;;;15.60;99.90;;;;;;5068544;28;20482;-65
2023/07/02 01:08:24;;;;;;;12.45;6.75;;;15.60;99.90;;;;;;5060678;28;20037;-65
2023/07/02 01:10:50;;;;;;;12.35;6.60;;;15.60;99.90;;;;;;5070206;28;20393;-65
2023/07/02 01:13:20;;;;;;;12.60;6.45;;;15.60;99.90;;;;;;5071658;28;20093;-65
2023/07/02 01:15:46;;;;;;;13.88;5.90;;;15.50;99.90;;;;;;5059539;28;20483;-65
2023/07/02 01:18:14;;;;;;;13.27;6.28;;;15.50;99.90;;;;;;5070084;28;20427;-65
2023/07/02 01:20:41;;;;;;;13.73;6.70;;;15.50;99.90;;;;;;5071765;28;20174;-65
2023/07/02 01:23:08;;;;;;;15.73;6.38;;;15.50;99.90;;;;;;5072001;28;20041;-65
2023/07/02 01:25:36;;;;;;;11.00;6.40;;;15.50;99.90;;;;;;5054743;28;20068;-65
2023/07/02 01:28:03;;;;;;;11.82;6.40;;;15.30;99.90;;;;;;5069705;28;20039;-65
2023/07/02 01:30:28;;;;;;;13.48;6.53;;;15.30;99.90;;;;;;5071814;28;20064;-65
2023/07/02 01:32:54;;;;;;;13.18;6.30;;;15.20;99.90;;;;;;5071541;28;20094;-65
2023/07/02 01:35:20;;;;;;;17.27;6.15;;;15.10;99.90;;;;;;5060056;28;20051;-64
2023/07/02 01:37:45;;;;;;;15.45;6.43;;;15.00;99.90;;;;;;5069103;28;20040;-65
2023/07/02 01:40:11;;;;;;;14.05;6.78;;;15.00;99.90;;;;;;5071131;28;20097;-65
2023/07/02 01:42:37;;;;;;;16.95;6.60;;;14.90;99.90;;;;;;5064945;28;20556;-65
2023/07/02 01:45:03;;;;;;;15.60;6.25;;;14.80;99.90;;;;;;5064211;28;20040;-65
2023/07/02 01:47:29;;;;;;;11.85;6.25;;;14.70;99.90;;;;;;5070983;28;20113;-65
2023/07/02 01:49:55;;;;;;;16.63;6.75;;;14.70;99.90;;;;;;5071759;28;20064;-64
2023/07/02 01:52:20;;;;;;;18.80;6.85;;;14.70;99.90;;;;;;5061546;28;20403;-65
2023/07/02 01:54:46;;;;;;;15.63;6.85;;;14.70;99.90;;;;;;5065511;28;20049;-63
2023/07/02 01:57:12;;;;;;;21.45;6.93;;;14.60;99.90;;;;;;5070768;28;20470;-65
2023/07/02 01:59:37;;;;;;;13.30;6.60;;;14.60;99.90;;;;;;5064177;28;20041;-65
2023/07/02 02:02:03;;;;;;;21.15;6.95;;;14.60;99.90;;;;;;5065555;28;20033;-65
2023/07/02 02:04:29;;;;;;;16.27;7.03;;;14.50;99.90;;;;;;5053486;28;20041;-65
2023/07/02 02:06:55;;;;;;;18.65;7.35;;;14.40;99.90;;;;;;5068413;28;20040;-62
2023/07/02 02:09:21;;;;;;;13.93;7.20;;;14.40;99.90;;;;;;5059232;28;20080;-64
2023/07/02 02:11:49;;;;;;;22.67;7.28;;;14.30;99.90;;;;;;5068966;28;20090;-64
2023/07/02 02:14:14;;;;;;;22.95;7.53;;;14.30;99.90;;;;;;5071358;28;20045;-64
2023/07/02 02:16:40;;;;;;;15.80;7.15;;;14.10;99.90;;;;;;5049315;28;20430;-65
2023/07/02 02:19:06;;;;;;;19.17;7.35;;;14.10;99.90;;;;;;5055425;28;20085;-65
2023/07/02 02:21:32;;;;;;;18.10;7.40;;;14.00;99.90;;;;;;5071176;28;20048;-65
2023/07/02 02:23:58;;;;;;;19.95;7.93;;;14.10;99.90;;;;;;5068599;28;20403;-65
2023/07/02 02:26:25;;;;;;;18.70;7.50;;;14.00;99.90;;;;;;5061442;28;20040;-65
2023/07/02 02:28:50;;;;;;;19.17;7.53;;;14.00;99.90;;;;;;5069250;28;20098;-65
2023/07/02 02:31:16;;;;;;;16.27;7.40;;;13.90;99.90;;;;;;5070583;28;20025;-64
2023/07/02 02:33:42;;;;;;;16.30;7.00;;;13.90;99.90;;;;;;5064558;28;20533;-64
2023/07/02 02:36:08;;;;;;;21.58;7.57;;;13.90;99.90;;;;;;5068594;28;20036;-64
2023/07/02 02:38:34;;;;;;;21.50;7.68;;;13.90;99.90;;;;;;5070890;28;20053;-64
2023/07/02 02:41:00;;;;;;;24.63;7.85;;;13.80;99.90;;;;;;5064888;28;20413;-63
2023/07/02 02:43:26;;;;;;;21.15;7.68;;;13.80;99.90;;;;;;5064949;28;20056;-65
2023/07/02 02:45:51;;;;;;;21.23;7.85;;;13.80;99.90;;;;;;5070583;28;20047;-65
2023/07/02 02:48:17;;;;;;;18.75;7.38;;;13.80;99.90;;;;;;5067223;28;20394;-65
2023/07/02 02:50:43;;;;;;;15.98;7.07;;;13.70;99.90;;;;;;5053641;28;20086;-65
2023/07/02 02:53:09;;;;;;;17.05;7.28;;;13.80;99.90;;;;;;5065748;28;20486;-64
2023/07/02 02:55:36;;;;;;;18.75;7.45;;;13.70;99.90;;;;;;5070714;28;20052;-65
2023/07/02 02:58:02;;;;;;;21.50;8.20;;;13.70;99.90;;;;;;5064027;28;20033;-65
2023/07/02 03:00:27;;;;;;;17.50;7.85;;;13.70;99.90;;;;;;5065310;28;20042;-65
2023/07/02 03:02:53;;;;;;;22.63;7.90;;;13.70;99.90;;;;;;5070805;28;20036;-65
2023/07/02 03:05:18;;;;;;;23.33;7.70;;;13.60;99.90;;;;;;5070798;28;20076;-64
2023/07/02 03:07:44;;;;;;;20.23;7.55;;;13.70;99.90;;;;;;5050178;28;20037;-66
2023/07/02 03:10:09;;;;;;;23.90;8.25;;;13.60;99.90;;;;;;5063468;28;20032;-65
2023/07/02 03:12:35;;;;;;;25.73;7.97;;;13.70;99.90;;;;;;5071071;28;20119;-65
2023/07/02 03:15:01;;;;;;;18.85;7.80;;;13.60;99.90;;;;;;5068833;28;20040;-61
2023/07/02 03:17:26;;;;;;;26.85;8.57;;;13.60;99.90;;;;;;5040231;28;20052;-65
2023/07/02 03:19:52;;;;;;;22.23;8.07;;;13.60;99.90;;;;;;5069181;28;20044;-65
2023/07/02 03:22:17;;;;;;;26.27;8.77;;;13.60;99.90;;;;;;5067326;28;20506;-66
2023/07/02 03:24:43;;;;;;;23.92;8.35;;;13.70;99.90;;;;;;5056873;28;20041;-65
2023/07/02 03:27:09;;;;;;;22.85;8.13;;;13.60;99.90;;;;;;5069677;28;20035;-65
2023/07/02 03:29:35;;;;;;;27.83;7.80;;;13.60;99.90;;;;;;5073676;28;20086;-65
2023/07/02 03:32:01;;;;;;;20.77;8.10;;;13.50;99.90;;;;;;5068771;28;20471;-65
2023/07/02 03:34:27;;;;;;;23.13;7.63;;;13.50;99.90;;;;;;5054714;28;20427;-63
2023/07/02 03:36:52;;;;;;;24.85;8.23;;;13.50;99.90;;;;;;5065959;28;20588;-65
2023/07/02 03:39:18;;;;;;;28.63;8.07;;;13.50;99.90;;;;;;5065741;28;20046;-65
2023/07/02 03:41:44;;;;;;;20.80;8.05;;;13.50;99.90;;;;;;5058253;28;20041;-64
2023/07/02 03:44:10;;;;;;;24.60;8.30;;;13.50;99.90;;;;;;5064803;28;20037;-65
2023/07/02 03:46:36;;;;;;;23.75;7.75;;;13.50;99.90;;;;;;5073607;28;20040;-65
2023/07/02 03:49:03;;;;;;;20.98;8.45;;;13.50;99.90;;;;;;5073066;28;20036;-65
2023/07/02 03:51:29;;;;;;;22.17;7.97;;;13.50;99.90;;;;;;5070942;28;20044;-64
2023/07/02 03:53:54;;;;;;;26.30;8.30;;;13.50;99.90;;;;;;5072047;28;20033;-65
2023/07/02 03:56:20;;;;;;;23.58;8.75;;;13.50;99.90;;;;;;5064253;28;20112;-63
2023/07/02 03:58:46;;;;;;;25.98;8.82;;;13.50;99.90;;;;;;5056136;28;20072;-65
2023/07/02 04:01:11;;;;;;;22.48;8.63;;;13.50;99.90;;;;;;5073258;28;20037;-65
2023/07/02 04:03:37;;;;;;;19.65;7.88;;;13.50;99.90;;;;;;5073718;28;20119;-65
2023/07/02 04:06:05;;;;;;;19.55;8.63;;;13.50;99.90;;;;;;5067013;28;20401;-64
2023/07/02 04:08:31;;;;;;;21.92;8.35;;;13.50;99.90;;;;;;5064112;28;20046;-65
2023/07/02 04:10:57;;;;;;;19.92;8.20;;;13.50;99.90;;;;;;5072554;28;20036;-65
2023/07/02 04:13:22;;;;;;;22.95;7.70;;;13.60;99.90;;;;;;5067890;28;20041;-65
2023/07/02 04:15:48;;;;;;;25.52;8.32;;;13.60;99.90;;;;;;5068988;28;20032;-65
2023/07/02 04:18:14;;;;;;;24.45;8.05;;;13.60;99.90;;;;;;5065199;28;20123;-65
2023/07/02 04:20:39;;;;;;;21.42;7.60;;;13.60;99.90;;;;;;5108154;22;20425;-65
2023/07/02 04:23:06;;;;;;;22.80;8.23;;;13.70;99.90;;;;;;5033632;28;20275;-65
2023/07/02 04:25:31;;;;;;;23.05;8.43;;;13.70;99.90;;;;;;5036667;28;20037;-64
2023/07/02 04:27:58;;;;;;;22.58;8.63;;;13.70;99.90;;;;;;5023869;28;20056;-65
2023/07/02 04:30:25;;;;;;;30.25;8.57;;;13.70;99.90;;;;;;5011945;28;20045;-65
2023/07/02 04:32:51;;;;;;;20.83;8.45;;;13.80;99.90;;;;;;5019050;28;20434;-65
2023/07/02 04:35:16;;;;;;;24.48;8.15;;;13.80;99.90;;;;;;5032402;28;20041;-65
2023/07/02 04:37:42;;;;;;;24.27;8.63;;;13.90;99.90;;;;;;5013704;28;20043;-64
2023/07/02 04:40:11;;;;;;;17.05;8.25;;;13.90;99.90;;;;;;5018727;28;20161;-64
2023/07/02 04:42:41;;;;;;;19.60;8.38;;;13.90;99.90;;;;;;5010617;28;20065;-65
2023/07/02 04:45:08;;;;;;;23.90;8.77;;;14.00;99.90;;;;;;5027779;28;20049;-65
2023/07/02 04:47:34;;;;;;;20.38;8.20;;;14.00;99.90;;;;;;5009286;28;20046;-63
2023/07/02 04:50:00;;;;;;;26.63;8.63;;;14.00;99.90;;;;;;5014994;28;20034;-64
2023/07/02 04:52:26;;;;;;;22.08;8.52;;;14.10;99.90;;;;;;5023852;28;20068;-64
2023/07/02 04:54:52;;;;;;;24.90;8.63;;;14.10;99.90;;;;;;5012524;28;20119;-65
2023/07/02 04:57:17;;;;;;;27.40;8.65;;;14.20;99.90;;;;;;5003523;28;20076;-65
2023/07/02 04:59:43;;;;;;;22.48;8.02;;;14.20;99.90;;;;;;5007479;28;20083;-65
2023/07/02 05:02:09;;;;;;;24.27;8.15;;;14.20;99.90;;;;;;5019041;28;20038;-64
2023/07/02 05:04:37;;;;;;;25.20;8.57;;;14.30;99.90;;;;;;5001590;28;20042;-64
2023/07/02 05:07:03;;;;;;;25.23;8.20;;;14.40;99.90;;;;;;5008910;28;20053;-65
2023/07/02 05:09:29;;;;;;;25.38;8.50;;;14.40;99.90;;;;;;5011231;28;20080;-65
2023/07/02 05:11:54;;;;;;;28.55;8.38;;;14.40;99.90;;;;;;5026857;28;20073;-64
2023/07/02 05:14:20;;;;;;;26.88;8.45;;;14.50;99.90;;;;;;5006956;28;20054;-61
2023/07/02 05:16:45;;;;;;;23.90;8.68;;;14.60;99.90;;;;;;5011585;28;20048;-64
2023/07/02 05:19:11;;;;;;;21.00;8.25;;;14.60;99.90;;;;;;5012191;28;20734;-66
2023/07/02 05:21:37;;;;;;;23.17;8.50;;;14.70;99.90;;;;;;5014153;28;20038;-64
2023/07/02 05:24:02;;;;;;;27.48;8.90;;;14.80;99.90;;;;;;5023061;28;20059;-66
2023/07/02 05:26:28;;;;;;;26.60;8.30;;;15.00;99.90;;;;;;5032248;28;20048;-65
2023/07/02 05:28:53;;;;;;;20.15;8.35;;;15.10;99.90;;;;;;5025613;28;20079;-66
2023/07/02 05:31:19;;;;;;;29.98;8.95;;;15.10;99.90;;;;;;5025963;28;20041;-64
2023/07/02 05:33:45;;;;;;;24.92;9.02;;;15.20;99.90;;;;;;5022926;28;20522;-66
2023/07/02 05:36:10;;;;;;;27.23;8.63;;;15.20;99.90;;;;;;5015101;28;20041;-65
2023/07/02 05:38:36;;;;;;;25.88;8.57;;;15.10;99.90;;;;;;5012409;28;20121;-65
2023/07/02 05:41:03;;;;;;;27.40;8.38;;;15.10;99.90;;;;;;5022725;28;20077;-64
2023/07/02 05:43:29;;;;;;;25.05;8.25;;;15.10;99.90;;;;;;5011241;28;20030;-64
2023/07/02 05:45:58;;;;;;;25.17;8.82;;;15.20;99.90;;;;;;5017264;28;20091;-63
2023/07/02 05:48:23;;;;;;;20.73;8.27;;;15.30;99.90;;;;;;4997623;28;20088;-64
2023/07/02 05:50:49;;;;;;;23.17;8.40;;;15.30;99.90;;;;;;5012021;28;20104;-64
2023/07/02 05:53:14;;;;;;;22.98;7.75;;;15.50;99.90;;;;;;5007151;28;20088;-64
2023/07/02 05:55:41;;;;;;;22.48;8.27;;;15.60;99.90;;;;;;5007753;28;20384;-63
2023/07/02 05:58:07;;;;;;;24.00;8.27;;;15.70;99.90;;;;;;5004398;28;20512;-65
2023/07/02 06:00:33;;;;;;;23.55;8.63;;;15.70;99.90;;;;;;5015560;28;20084;-64
2023/07/02 06:02:58;;;;;;;23.63;8.27;;;15.80;99.90;;;;;;5013278;28;20037;-64
2023/07/02 06:05:24;;;;;;;23.52;7.72;;;15.90;99.90;;;;;;5011012;28;20065;-62
2023/07/02 06:07:50;;;;;;;29.40;9.43;;;16.00;99.90;;;;;;5010947;28;20046;-65
2023/07/02 06:10:16;;;;;;;23.90;8.10;;;16.00;99.90;;;;;;5006151;28;20037;-66
2023/07/02 06:12:43;;;;;;;23.90;8.20;;;16.20;99.90;;;;;;5018125;28;20041;-66
2023/07/02 06:15:09;;;;;;;23.70;8.35;;;16.30;99.90;;;;;;5013787;28;20042;-64
2023/07/02 06:17:34;;;;;;;23.83;8.50;;;16.40;99.90;;;;;;5004736;28;20487;-63
2023/07/02 06:20:04;;;;;;;26.23;8.18;;;16.40;99.90;;;;;;5008741;28;20044;-64
2023/07/02 06:22:30;;;;;;;23.13;7.90;;;16.40;99.90;;;;;;5011338;28;20056;-64
2023/07/02 06:24:56;;;;;;;21.92;7.88;;;16.40;99.90;;;;;;5010876;28;20498;-65
2023/07/02 06:27:22;;;;;;;24.23;8.07;;;16.50;99.90;;;;;;5003350;28;20038;-60
2023/07/02 06:29:47;;;;;;;23.30;7.97;;;16.50;99.90;;;;;;5003820;28;20034;-65
2023/07/02 06:32:13;;;;;;;23.70;8.05;;;16.70;99.90;;;;;;5009589;28;20120;-62
2023/07/02 06:34:39;;;;;;;22.88;7.57;;;16.70;99.90;;;;;;5007162;28;20103;-65
2023/07/02 06:37:05;;;;;;;19.77;8.07;;;16.80;99.90;;;;;;4976909;28;20046;-64
2023/07/02 06:39:31;;;;;;;23.65;8.43;;;16.90;99.90;;;;;;5007087;28;20046;-64
2023/07/02 06:41:56;;;;;;;26.38;7.95;;;16.90;99.90;;;;;;5004066;28;20412;-64
2023/07/02 06:44:22;;;;;;;21.50;7.88;;;17.00;99.90;;;;;;4995614;28;20045;-64
2023/07/02 06:46:48;;;;;;;22.52;7.90;;;17.10;99.90;;;;;;5010579;28;20176;-63
2023/07/02 06:49:13;;;;;;;24.23;7.55;;;17.10;99.90;;;;;;5018543;28;20029;-64
2023/07/02 06:51:39;;;;;;;18.33;6.85;;;17.10;99.90;;;;;;5009047;28;20037;-64
2023/07/02 06:54:05;;;;;;;17.63;6.82;;;17.00;99.90;;;;;;5007358;28;20076;-67
2023/07/02 06:56:32;;;;;;;23.95;7.20;;;16.90;99.90;;;;;;4988589;28;20459;-66
2023/07/02 06:58:58;;;;;;;25.00;7.07;;;17.10;99.90;;;;;;5012158;28;20049;-62
2023/07/02 07:01:23;;;;;;;16.67;6.82;;;17.20;99.90;;;;;;5005761;28;20053;-66
2023/07/02 07:03:49;;;;;;;21.27;7.50;;;17.30;99.90;;;;;;5021007;28;20065;-66
2023/07/02 07:06:15;;;;;;;18.52;6.82;;;17.50;99.90;;;;;;5031405;28;20045;-64
2023/07/02 07:08:41;;;;;;;21.77;7.00;;;17.50;99.90;;;;;;5028750;28;20034;-64
2023/07/02 07:11:06;;;;;;;21.00;7.30;;;17.50;99.90;;;;;;5022128;28;20121;-66
2023/07/02 07:13:32;;;;;;;21.13;6.95;;;17.50;99.90;;;;;;5021001;28;20129;-63
2023/07/02 07:15:58;;;;;;;17.90;6.88;;;17.60;99.90;;;;;;5016127;28;20030;-64
2023/07/02 07:18:23;;;;;;;19.98;7.25;;;17.80;99.90;;;;;;5013802;28;20476;-62
2023/07/02 07:20:49;;;;;;;16.80;6.90;;;17.80;99.90;;;;;;5000898;28;20088;-64
2023/07/02 07:23:17;;;;;;;15.25;6.63;;;17.70;99.90;;;;;;5024343;28;20483;-63
2023/07/02 07:25:42;;;;;;;16.05;6.90;;;17.50;99.90;;;;;;5019602;28;20669;-63
2023/07/02 07:28:11;;;;;;;22.83;7.20;;;17.40;99.90;;;;;;5020900;28;20041;-62
2023/07/02 07:30:37;;;;;;;26.15;8.30;;;17.50;99.90;;;;;;5018803;28;20514;-63
2023/07/02 07:33:03;;;;;;;22.02;6.80;;;17.70;99.90;;;;;;5023373;28;20030;-61
2023/07/02 07:35:28;;;;;;;17.95;6.90;;;17.70;99.90;;;;;;5028883;28;20044;-62
2023/07/02 07:37:54;;;;;;;22.83;7.38;;;17.60;99.90;;;;;;5025658;28;20128;-62
2023/07/02 07:40:19;;;;;;;15.27;6.47;;;17.50;99.90;;;;;;5023390;28;20034;-65
2023/07/02 07:42:45;;;;;;;15.75;6.50;;;17.40;99.90;;;;;;4996976;28;20034;-63
2023/07/02 07:45:11;;;;;;;18.35;6.82;;;17.30;99.90;;;;;;5019860;28;20034;-63
2023/07/02 07:47:37;;;;;;;16.63;6.03;;;17.20;99.90;;;;;;5019161;28;20033;-63
2023/07/02 07:50:08;;;;;;;18.48;6.68;;;17.10;99.90;;;;;;5007909;28;20128;-63
2023/07/02 07:52:34;;;;;;;;;;;16.90;99.90;;;;;;5025043;28;20056;-63
2023/07/02 07:55:00;;;;;;;13.40;5.88;;;16.90;99.90;;;;;;5025676;28;19921;-63
2023/07/02 07:57:25;;;;;;;21.67;6.53;;;17.10;99.90;;;;;;5029555;28;20041;-62
2023/07/02 07:59:51;;;;;;;12.93;5.68;;;17.10;99.90;;;;;;5022713;28;20068;-63
2023/07/02 08:02:16;;;;;;;15.63;5.65;;;17.10;99.90;;;;;;5025366;28;20072;-63
2023/07/02 08:04:42;;;;;;;17.20;5.53;;;17.10;99.90;;;;;;5033839;28;20038;-62
2023/07/02 08:07:09;;;;;;;12.73;5.90;;;17.10;99.90;;;;;;5026254;28;20108;-62
2023/07/02 08:09:34;;;;;;;12.10;6.05;;;17.20;99.90;;;;;;5023324;28;20154;-63
2023/07/02 08:12:00;;;;;;;16.63;5.63;;;17.40;99.90;;;;;;5025335;28;20483;-62
2023/07/02 08:14:26;;;;;;;17.83;5.72;;;17.60;99.90;;;;;;5032193;28;20045;-63
2023/07/02 08:16:51;;;;;;;10.30;4.78;;;17.70;99.90;;;;;;5030385;28;20046;-62
2023/07/02 08:19:17;;;;;;;14.32;5.93;;;17.80;99.90;;;;;;5027054;28;20044;-63
2023/07/02 08:21:42;;;;;;;12.30;5.15;;;17.90;99.90;;;;;;5013467;28;20116;-62
2023/07/02 08:24:08;;;;;;;16.02;4.68;;;18.20;99.90;;;;;;5016061;28;20033;-62
2023/07/02 08:26:34;;;;;;;11.55;4.40;;;18.30;99.90;;;;;;5023615;28;20121;-63
2023/07/02 08:28:59;;;;;;;11.40;4.47;;;18.50;99.90;;;;;;5032949;28;20049;-62
2023/07/02 08:31:25;;;;;;;13.40;4.40;;;18.80;99.90;;;;;;5031955;28;20045;-63
2023/07/02 08:33:51;;;;;;;10.57;3.95;;;18.80;99.90;;;;;;5023902;28;20517;-63
2023/07/02 08:36:16;;;;;;;12.18;4.05;;;18.80;99.90;;;;;;5024780;28;20025;-62
2023/07/02 08:38:43;;;;;;;9.15;4.75;;;18.60;99.90;;;;;;5032873;28;20475;-62
2023/07/02 08:41:09;;;;;;;12.15;4.40;;;18.60;99.90;;;;;;5021903;28;20483;-62
2023/07/02 08:43:35;;;;;;;10.02;4.00;;;18.40;99.70;;;;;;5023737;28;20034;-63
2023/07/02 08:46:01;;;;;;;8.73;3.67;;;18.20;99.40;;;;;;5033290;28;20046;-62
2023/07/02 08:48:29;;;;;;;7.93;4.00;;;18.20;99.30;;;;;;5020437;28;20042;-63
2023/07/02 08:50:55;;;;;;;11.90;4.43;;;18.20;98.60;;;;;;5022829;28;20096;-64
2023/07/02 08:53:25;;;;;;;10.63;4.18;;;18.40;99.10;;;;;;5027461;28;20038;-64
2023/07/02 08:55:50;;;;;;;11.73;3.95;;;18.40;98.80;;;;;;5023784;28;20519;-62
2023/07/02 08:58:16;;;;;;;9.95;4.10;;;18.40;99.30;;;;;;5017413;28;20038;-63
2023/07/02 09:01:08;;;;;;;6.95;3.70;;;18.40;99.60;;;;;;5024121;28;20049;-64
2023/07/02 09:03:37;;;;;;;6.55;3.10;;;18.40;97.50;;;;;;5032732;28;20092;-63
2023/07/02 09:06:03;;;;;;;8.85;3.03;;;18.20;97.90;;;;;;5029154;28;20069;-64
2023/07/02 09:08:29;;;;;;;6.68;3.05;;;18.20;96.90;;;;;;5030931;28;20037;-64
2023/07/02 09:11:12;;;;;;;8.98;3.28;;;18.10;97.60;;;;;;5023691;28;20075;-64
2023/07/02 09:13:48;;;;;;;10.70;3.85;;;18.10;97.20;;;;;;5023698;28;20034;-64
2023/07/02 09:16:20;;;;;;;8.23;3.67;;;18.20;97.60;;;;;;5020075;28;20087;-64
2023/07/02 09:19:13;;;;;;;11.63;4.03;;;18.30;98.50;;;;;;5023365;28;20033;-64
2023/07/02 09:21:41;;;;;;;13.32;4.10;;;18.70;98.70;;;;;;5026932;28;20496;-63
2023/07/02 09:24:20;;;;;;;11.68;3.88;;;19.20;99.10;;;;;;5024091;28;20056;-64
2023/07/02 09:26:50;;;;;;;11.45;4.20;;;18.90;97.30;;;;;;5022958;28;20124;-64
2023/07/02 09:29:24;;;;;;;11.13;4.40;;;18.60;98.40;;;;;;5031662;28;20041;-65
2023/07/02 09:31:50;;;;;;;16.67;5.00;;;18.40;99.60;;;;;;5020738;28;20033;-64
2023/07/02 09:34:16;;;;;;;15.13;5.63;;;18.40;99.70;;;;;;5023752;28;20041;-64
2023/07/02 09:36:43;;;;;;;11.20;4.65;;;18.50;99.30;;;;;;5032239;28;20037;-65
2023/07/02 09:39:13;;;;;;;15.23;5.28;;;18.70;99.90;;;;;;5024334;28;20049;-64
2023/07/02 09:41:45;;;;;;;12.80;5.20;;;18.80;99.90;;;;;;5025985;28;20085;-64
2023/07/02 09:44:13;;;;;;;11.80;4.88;;;18.70;99.90;;;;;;5025331;28;20091;-65
2023/07/02 09:46:45;;;;;;;9.95;4.32;;;18.40;99.90;;;;;;5028043;28;20045;-64
2023/07/02 09:49:16;;;;;;;15.48;5.07;;;18.20;99.90;;;;;;5025112;28;20037;-65
2023/07/02 09:51:43;;;;;;;;;;;18.30;99.90;;;;;;5023818;28;20041;-64
2023/07/02 09:54:09;;;;;;;10.73;4.63;;;18.40;99.90;;;;;;5028026;28;19917;-64
2023/07/02 09:56:35;;;;;;;12.65;5.07;;;18.60;99.90;;;;;;5027741;28;20156;-64
2023/07/02 09:59:01;;;;;;;11.40;4.95;;;18.80;99.90;;;;;;5017277;28;20165;-64
2023/07/02 10:01:26;;;;;;;15.57;4.57;;;18.90;99.90;;;;;;5015338;28;20146;-64
2023/07/02 10:03:52;;;;;;;14.73;4.85;;;18.90;99.90;;;;;;5013887;28;20125;-64
2023/07/02 10:06:18;;;;;;;11.95;4.75;;;19.00;99.60;;;;;;5029716;28;20083;-65
2023/07/02 10:08:54;;;;;;;12.35;4.32;;;18.80;98.70;;;;;;5022464;28;20038;-64
2023/07/02 10:11:20;;;;;;;13.15;4.70;;;18.70;99.10;;;;;;5031634;28;20073;-64
2023/07/02 10:13:45;;;;;;;13.63;4.70;;;18.80;99.70;;;;;;5022571;28;20065;-63
2023/07/02 10:16:11;;;;;;;13.13;4.90;;;18.80;99.90;;;;;;5014410;28;20443;-65
2023/07/02 10:18:37;;;;;;;12.50;4.90;;;18.70;99.90;;;;;;5015201;28;20041;-65
2023/07/02 10:21:16;;;;;;;11.55;4.35;;;18.40;99.90;;;;;;5015686;28;20031;-64
2023/07/02 10:23:42;;;;;;;11.13;4.20;;;18.20;99.60;;;;;;5020657;28;20029;-65
2023/07/02 10:26:19;;;;;;;13.23;4.45;;;18.00;99.80;;;;;;5018101;28;20045;-64
2023/07/02 10:28:58;;;;;;;10.73;4.43;;;17.80;99.90;;;;;;5017755;28;20034;-65
2023/07/02 10:31:24;;;;;;;9.93;4.32;;;17.60;99.90;;;;;;5008721;28;20049;-63
2023/07/02 10:33:50;;;;;;;9.45;4.05;;;17.60;99.90;;;;;;5015844;28;20033;-63
2023/07/02 10:36:20;;;;;;;15.02;4.55;;;17.70;99.90;;;;;;5018014;28;20124;-64
2023/07/02 10:38:46;;;;;;;12.45;4.28;;;17.90;99.90;;;;;;5025918;28;20033;-64
2023/07/02 10:41:22;;;;;;;13.15;4.60;;;18.00;99.90;;;;;;5028886;28;20034;-64
2023/07/02 10:43:47;;;;;;;11.05;4.38;;;18.10;99.90;;;;;;5025517;28;20120;-63
2023/07/02 10:46:19;;;;;;;15.73;4.88;;;18.10;99.90;;;;;;5023421;28;20120;-64
2023/07/02 10:48:52;;;;;;;12.93;4.22;;;18.30;99.90;;;;;;5018422;28;20096;-62
2023/07/02 10:51:18;;;;;;;11.75;4.47;;;18.50;99.90;;;;;;5031467;28;20514;-63
2023/07/02 10:53:44;;;;;;;7.97;3.75;;;18.80;99.90;;;;;;5022516;28;20037;-63
2023/07/02 10:56:17;;;;;;;13.88;4.32;;;19.20;99.80;;;;;;5022508;28;20025;-62
2023/07/02 10:58:43;;;;;;;12.68;4.45;;;19.40;99.00;;;;;;5025894;28;20049;-63
2023/07/02 11:01:09;;;;;;;13.85;4.43;;;19.30;99.20;;;;;;5017841;28;20037;-63
2023/07/02 11:03:34;;;;;;;15.63;4.93;;;19.40;99.90;;;;;;5012052;28;20416;-64
2023/07/02 11:06:00;;;;;;;11.93;4.35;;;19.60;99.90;;;;;;5029018;28;20115;-63
2023/07/02 11:08:35;;;;;;;9.27;4.20;;;19.70;99.90;;;;;;4995931;28;20121;-64
2023/07/02 11:11:18;;;;;;;13.73;4.70;;;19.70;99.50;;;;;;5017606;28;20034;-63
2023/07/02 11:13:51;;;;;;;11.70;3.88;;;19.80;99.30;;;;;;5025671;28;20038;-64
2023/07/02 11:16:35;;;;;;;14.50;3.42;;;19.60;97.80;;;;;;5034856;28;20064;-63
2023/07/02 11:19:08;;;;;;;13.30;3.95;;;19.10;94.40;;;;;;5024211;28;20072;-64
2023/07/02 11:21:35;;;;;;;11.98;3.78;;;19.20;95.70;;;;;;5008924;28;20052;-64
2023/07/02 11:24:05;;;;;;;11.52;4.30;;;19.30;96.40;;;;;;5018862;28;20153;-64
2023/07/02 11:26:40;;;;;;;7.78;3.72;;;19.90;96.60;;;;;;5012728;28;20034;-63
2023/07/02 11:29:17;;;;;;;9.27;3.75;;;20.10;95.80;;;;;;5021034;28;20091;-63
2023/07/02 11:31:43;;;;;;;11.18;4.47;;;20.10;95.00;;;;;;5010894;28;20481;-64
2023/07/02 11:34:13;;;;;;;10.32;4.28;;;19.90;95.90;;;;;;5010301;28;20049;-65
2023/07/02 11:36:38;;;;;;;13.50;3.83;;;19.70;95.80;;;;;;5016402;28;20128;-64
2023/07/02 11:39:05;;;;;;;8.43;3.78;;;19.50;95.10;;;;;;5024232;28;20543;-63
2023/07/02 11:41:44;;;;;;;12.15;4.00;;;19.30;94.60;;;;;;5032260;28;20045;-62
2023/07/02 11:44:10;;;;;;;9.00;3.75;;;19.30;94.50;;;;;;5010183;28;20092;-62
2023/07/02 11:46:35;;;;;;;7.78;3.90;;;19.40;94.70;;;;;;5029736;28;20025;-62
2023/07/02 11:49:04;;;;;;;10.95;3.97;;;19.70;94.30;;;;;;5024248;28;20564;-62
2023/07/02 11:51:31;;;;;;;11.20;4.30;;;19.80;93.40;;;;;;5033893;28;20044;-63
2023/07/02 11:53:57;;;;;;;8.73;4.00;;;20.30;94.00;;;;;;5026984;28;20033;-63
2023/07/02 11:56:23;;;;;;;9.25;4.20;;;21.00;93.70;;;;;;5023764;28;20059;-64
2023/07/02 11:58:49;;;;;;;8.85;4.40;;;21.20;92.70;;;;;;5025280;28;20061;-64
2023/07/02 12:01:14;;;;;;;10.50;4.40;;;21.10;91.90;;;;;;5025071;28;20069;-64
2023/07/02 12:03:40;;;;;;;13.85;5.35;;;20.50;92.40;;;;;;5024519;28;20042;-64
2023/07/02 12:06:05;;;;;;;7.95;4.18;;;20.20;92.40;;;;;;5034056;28;20462;-63
2023/07/02 12:08:31;;;;;;;9.52;3.95;;;20.00;92.70;;;;;;5022706;28;20038;-62
2023/07/02 12:10:57;;;;;;;6.88;3.35;;;19.90;91.60;;;;;;5022285;28;20142;-63
2023/07/02 12:13:22;;;;;;;8.65;3.65;;;19.80;91.70;;;;;;5027174;28;20124;-62
2023/07/02 12:15:49;;;;;;;7.80;3.38;;;19.70;92.00;;;;;;5024724;28;20496;-62
2023/07/02 12:18:15;;;;;;;8.05;3.35;;;19.80;91.10;;;;;;5019260;28;20037;-63
2023/07/02 12:20:40;;;;;;;9.48;3.33;;;19.70;90.90;;;;;;5021987;28;20038;-62
2023/07/02 12:23:06;;;;;;;8.98;3.42;;;19.70;91.10;;;;;;5033532;28;20122;-62
2023/07/02 12:25:32;;;;;;;7.15;3.60;;;19.70;91.10;;;;;;5033189;28;20041;-62
2023/07/02 12:27:58;;;;;;;9.10;3.53;;;19.70;90.60;;;;;;5007991;28;20029;-63
2023/07/02 12:30:24;;;;;;;9.05;3.45;;;19.70;90.70;;;;;;4996447;28;20648;-62
2023/07/02 12:32:50;;;;;;;9.82;3.38;;;19.50;90.90;;;;;;5020780;28;20041;-62
2023/07/02 12:35:15;;;;;;;8.68;3.75;;;19.50;91.20;;;;;;5010551;28;20038;-63
2023/07/02 12:37:49;;;;;;;9.65;3.40;;;19.40;90.90;;;;;;5020206;28;20109;-64